Time,TemperatureF,DewpointF,PressureIn,WindDirection,WindDirectionDegrees,WindSpeedMPH,WindSpeedGustMPH,Humidity,HourlyPrecipIn,Conditions,Clouds,dailyrainin,SoftwareType,DateUTC
2013-04-20 00:03:00,43.0,30.0,29.83,West,266,5.0,20.0,61,0.00,,,0.01,,2013-04-20 04:03:00,
2013-04-20 00:12:00,43.0,30.0,29.83,West,266,5.0,20.0,61,0.00,,,0.01,,2013-04-20 04:12:00,
2013-04-20 00:23:00,43.0,30.0,29.83,WSW,247,12.0,26.0,61,0.00,,,0.01,,2013-04-20 04:23:00,
2013-04-20 00:33:00,43.0,31.0,29.83,WSW,248,5.0,20.0,62,0.00,,,0.01,,2013-04-20 04:33:00,
2013-04-20 00:42:00,43.0,31.0,29.83,WSW,248,5.0,20.0,62,0.00,,,0.01,,2013-04-20 04:42:00,
2013-04-20 00:52:00,43.0,30.0,29.83,WSW,248,10.0,23.0,61,0.00,,,0.01,,2013-04-20 04:52:00,
2013-04-20 01:02:00,43.0,30.0,29.83,WNW,282,9.0,23.0,61,0.00,,,0.01,,2013-04-20 05:02:00,
2013-04-20 01:12:00,43.0,30.0,29.83,WNW,282,9.0,23.0,61,0.00,,,0.01,,2013-04-20 05:12:00,
2013-04-20 01:22:00,42.0,30.0,29.84,WSW,256,8.0,29.0,61,0.00,,,0.01,,2013-04-20 05:22:00,
2013-04-20 01:32:00,42.0,30.0,29.83,West,269,10.0,24.0,61,0.00,,,0.01,,2013-04-20 05:32:00,
2013-04-20 01:43:00,42.0,30.0,29.83,West,269,10.0,24.0,61,0.00,,,0.01,,2013-04-20 05:43:00,
2013-04-20 01:52:00,42.0,30.0,29.82,West,269,8.0,23.0,61,0.00,,,0.01,,2013-04-20 05:52:00,
2013-04-20 02:02:00,42.0,30.0,29.82,West,260,10.0,20.0,62,0.00,,,0.01,,2013-04-20 06:02:00,
2013-04-20 02:12:00,42.0,30.0,29.82,West,260,10.0,20.0,62,0.00,,,0.01,,2013-04-20 06:12:00,
2013-04-20 02:21:00,42.0,30.0,29.82,WSW,248,8.0,19.0,62,0.00,,,0.01,,2013-04-20 06:21:00,
2013-04-20 02:32:00,42.0,30.0,29.82,SW,236,5.0,23.0,61,0.00,,,0.01,,2013-04-20 06:32:00,
2013-04-20 02:42:00,42.0,30.0,29.82,SW,236,5.0,23.0,61,0.00,,,0.01,,2013-04-20 06:42:00,
2013-04-20 02:52:00,42.0,29.0,29.81,West,277,8.0,16.0,60,0.00,,,0.01,,2013-04-20 06:52:00,
2013-04-20 03:02:00,42.0,28.0,29.80,SW,236,11.0,23.0,58,0.00,,,0.01,,2013-04-20 07:02:00,
2013-04-20 03:11:00,42.0,28.0,29.80,SW,236,11.0,23.0,58,0.00,,,0.01,,2013-04-20 07:11:00,
2013-04-20 03:22:00,42.0,28.0,29.80,SW,223,9.0,25.0,57,0.00,,,0.01,,2013-04-20 07:22:00,
2013-04-20 03:32:00,42.0,27.0,29.81,WSW,240,7.0,19.0,56,0.00,,,0.01,,2013-04-20 07:32:00,
2013-04-20 03:42:00,42.0,27.0,29.81,WSW,240,7.0,19.0,56,0.00,,,0.01,,2013-04-20 07:42:00,
2013-04-20 03:52:00,42.0,27.0,29.81,West,268,11.0,23.0,56,0.00,,,0.01,,2013-04-20 07:52:00,
2013-04-20 04:02:00,42.0,29.0,29.81,West,269,11.0,26.0,59,0.00,,,0.01,,2013-04-20 08:02:00,
2013-04-20 04:11:00,42.0,29.0,29.81,West,269,11.0,26.0,59,0.00,,,0.01,,2013-04-20 08:11:00,
2013-04-20 04:21:00,41.0,29.0,29.82,West,277,14.0,31.0,61,0.00,,,0.01,,2013-04-20 08:21:00,
2013-04-20 04:32:00,41.0,29.0,29.82,WSW,242,6.0,26.0,63,0.00,,,0.01,,2013-04-20 08:32:00,
2013-04-20 04:42:00,41.0,29.0,29.82,WSW,242,6.0,26.0,63,0.00,,,0.01,,2013-04-20 08:42:00,
2013-04-20 04:52:00,40.0,30.0,29.83,NW,306,14.0,29.0,66,0.00,,,0.01,,2013-04-20 08:52:00,
2013-04-20 05:02:00,40.0,31.0,29.83,South,182,11.0,26.0,69,0.00,,,0.01,,2013-04-20 09:02:00,
2013-04-20 05:12:00,40.0,31.0,29.83,South,182,11.0,26.0,69,0.00,,,0.01,,2013-04-20 09:12:00,
2013-04-20 05:21:00,39.0,30.0,29.83,WNW,301,7.0,26.0,70,0.00,,,0.01,,2013-04-20 09:21:00,
2013-04-20 05:33:00,39.0,30.0,29.84,WSW,255,14.0,22.0,69,0.00,,,0.01,,2013-04-20 09:33:00,
2013-04-20 05:43:00,39.0,30.0,29.84,WSW,255,14.0,22.0,69,0.00,,,0.01,,2013-04-20 09:43:00,
2013-04-20 05:53:00,39.0,30.0,29.85,West,269,7.0,21.0,70,0.00,,,0.01,,2013-04-20 09:53:00,
2013-04-20 06:03:00,39.0,29.0,29.85,WSW,258,10.0,25.0,68,0.00,,,0.01,,2013-04-20 10:03:00,
2013-04-20 06:13:00,39.0,29.0,29.85,WSW,258,10.0,25.0,68,0.00,,,0.01,,2013-04-20 10:13:00,
2013-04-20 06:23:00,39.0,29.0,29.85,WSW,238,6.0,20.0,68,0.00,,,0.01,,2013-04-20 10:23:00,
2013-04-20 06:33:00,39.0,29.0,29.85,SW,221,8.0,16.0,68,0.00,,,0.01,,2013-04-20 10:33:00,
2013-04-20 06:42:00,39.0,29.0,29.85,SW,221,8.0,16.0,68,0.00,,,0.01,,2013-04-20 10:42:00,
2013-04-20 06:52:00,39.0,30.0,29.86,WSW,244,8.0,20.0,69,0.00,,,0.01,,2013-04-20 10:52:00,
2013-04-20 07:02:00,38.0,30.0,29.87,West,281,13.0,26.0,73,0.00,,,0.01,,2013-04-20 11:02:00,
2013-04-20 07:12:00,38.0,30.0,29.87,West,281,13.0,26.0,73,0.00,,,0.01,,2013-04-20 11:12:00,
2013-04-20 07:23:00,37.0,31.0,29.88,SW,232,7.0,17.0,80,0.00,,,0.01,,2013-04-20 11:23:00,
2013-04-20 07:32:00,37.0,31.0,29.88,WSW,250,5.0,19.0,80,0.00,,,0.01,,2013-04-20 11:32:00,
2013-04-20 07:42:00,37.0,31.0,29.88,WSW,250,5.0,19.0,80,0.00,,,0.01,,2013-04-20 11:42:00,
2013-04-20 07:52:00,38.0,32.0,29.89,SSW,201,9.0,19.0,78,0.00,,,0.01,,2013-04-20 11:52:00,
2013-04-20 08:02:00,38.0,32.0,29.90,WSW,239,11.0,21.0,78,0.00,,,0.01,,2013-04-20 12:02:00,
2013-04-20 08:11:00,38.0,32.0,29.90,WSW,239,11.0,21.0,78,0.00,,,0.01,,2013-04-20 12:11:00,
2013-04-20 08:23:00,39.0,32.0,29.90,West,261,10.0,24.0,76,0.00,,,0.01,,2013-04-20 12:23:00,
2013-04-20 08:32:00,40.0,32.0,29.90,West,262,10.0,24.0,72,0.00,,,0.01,,2013-04-20 12:32:00,
2013-04-20 08:42:00,40.0,32.0,29.90,West,262,10.0,24.0,72,0.00,,,0.01,,2013-04-20 12:42:00,
2013-04-20 08:52:00,38.0,33.0,29.92,NW,313,12.0,24.0,81,0.00,,,0.01,,2013-04-20 12:52:00,
2013-04-20 09:02:00,37.0,33.0,29.92,WSW,242,8.0,19.0,84,0.00,,,0.01,,2013-04-20 13:02:00,
2013-04-20 09:11:00,37.0,33.0,29.92,WSW,242,8.0,19.0,84,0.00,,,0.01,,2013-04-20 13:11:00,
2013-04-20 09:22:00,39.0,32.0,29.92,West,274,12.0,26.0,75,0.00,,,0.01,,2013-04-20 13:22:00,
2013-04-20 09:32:00,40.0,28.0,29.93,SW,236,16.0,30.0,62,0.00,,,0.01,,2013-04-20 13:32:00,
2013-04-20 09:42:00,40.0,28.0,29.93,SW,236,16.0,30.0,62,0.00,,,0.01,,2013-04-20 13:42:00,
2013-04-20 09:52:00,41.0,27.0,29.94,West,263,13.0,27.0,58,0.00,,,0.01,,2013-04-20 13:52:00,
2013-04-20 10:02:00,41.0,27.0,29.94,NW,315,11.0,31.0,57,0.00,,,0.01,,2013-04-20 14:02:00,
2013-04-20 10:11:00,41.0,27.0,29.94,NW,315,11.0,31.0,57,0.00,,,0.01,,2013-04-20 14:11:00,
2013-04-20 10:21:00,40.0,27.0,29.96,West,267,13.0,35.0,59,0.00,,,0.01,,2013-04-20 14:21:00,
2013-04-20 10:32:00,39.0,28.0,29.97,West,265,10.0,26.0,64,0.00,,,0.01,,2013-04-20 14:32:00,
2013-04-20 10:42:00,39.0,28.0,29.97,West,265,10.0,26.0,64,0.00,,,0.01,,2013-04-20 14:42:00,
2013-04-20 10:51:00,38.0,30.0,29.99,WNW,284,8.0,34.0,72,0.00,,,0.01,,2013-04-20 14:51:00,
2013-04-20 11:02:00,36.0,31.0,29.99,West,273,7.0,18.0,83,0.00,,,0.01,,2013-04-20 15:02:00,
2013-04-20 11:12:00,36.0,31.0,29.99,West,273,7.0,18.0,83,0.00,,,0.01,,2013-04-20 15:12:00,
2013-04-20 11:21:00,37.0,30.0,30.00,WNW,287,12.0,21.0,77,0.01,,,0.02,,2013-04-20 15:21:00,
2013-04-20 11:33:00,39.0,28.0,30.01,WSW,248,15.0,26.0,65,0.01,,,0.02,,2013-04-20 15:33:00,
2013-04-20 11:43:00,39.0,28.0,30.01,WSW,248,15.0,26.0,65,0.01,,,0.02,,2013-04-20 15:43:00,
2013-04-20 11:53:00,42.0,28.0,30.01,West,264,13.0,28.0,57,0.01,,,0.02,,2013-04-20 15:53:00,
2013-04-20 12:03:00,41.0,27.0,30.02,West,267,16.0,34.0,56,0.01,,,0.02,,2013-04-20 16:03:00,
2013-04-20 12:12:00,41.0,27.0,30.02,West,267,16.0,34.0,56,0.01,,,0.02,,2013-04-20 16:12:00,
2013-04-20 12:23:00,41.0,26.0,30.03,West,266,11.0,27.0,55,0.00,,,0.02,,2013-04-20 16:23:00,
2013-04-20 12:33:00,41.0,24.0,30.04,WNW,298,11.0,28.0,50,0.00,,,0.02,,2013-04-20 16:33:00,
2013-04-20 12:42:00,41.0,24.0,30.04,WNW,298,11.0,28.0,50,0.00,,,0.02,,2013-04-20 16:42:00,
2013-04-20 12:52:00,41.0,23.0,30.05,SW,228,16.0,31.0,49,0.00,,,0.02,,2013-04-20 16:52:00,
2013-04-20 13:02:00,41.0,23.0,30.06,West,278,9.0,20.0,48,0.00,,,0.02,,2013-04-20 17:02:00,
2013-04-20 13:12:00,41.0,23.0,30.06,West,278,9.0,20.0,48,0.00,,,0.02,,2013-04-20 17:12:00,
2013-04-20 13:23:00,39.0,25.0,30.08,WNW,288,12.0,24.0,56,0.00,,,0.02,,2013-04-20 17:23:00,
2013-04-20 13:33:00,39.0,25.0,30.09,West,264,12.0,22.0,56,0.00,,,0.02,,2013-04-20 17:33:00,
2013-04-20 13:42:00,39.0,25.0,30.09,West,264,12.0,22.0,56,0.00,,,0.02,,2013-04-20 17:42:00,
2013-04-20 13:52:00,40.0,24.0,30.09,NW,304,10.0,26.0,52,0.00,,,0.01,,2013-04-20 17:52:00,
2013-04-20 14:02:00,39.0,25.0,30.10,WNW,286,7.0,21.0,56,0.00,,,0.01,,2013-04-20 18:02:00,
2013-04-20 14:13:00,39.0,25.0,30.10,WNW,286,7.0,21.0,56,0.00,,,0.01,,2013-04-20 18:13:00,
2013-04-20 14:22:00,40.0,24.0,30.11,West,276,11.0,21.0,53,0.00,,,0.01,,2013-04-20 18:22:00,
2013-04-20 14:32:00,40.0,23.0,30.12,West,261,10.0,26.0,51,0.00,,,0.01,,2013-04-20 18:32:00,
2013-04-20 14:42:00,40.0,23.0,30.12,West,261,10.0,26.0,51,0.00,,,0.01,,2013-04-20 18:42:00,
2013-04-20 14:52:00,40.0,23.0,30.14,WNW,282,9.0,26.0,50,0.00,,,0.01,,2013-04-20 18:52:00,
2013-04-20 15:02:00,40.0,22.0,30.14,WSW,248,14.0,23.0,49,0.00,,,0.01,,2013-04-20 19:02:00,
2013-04-20 15:11:00,40.0,24.0,30.15,NW,304,8.0,24.0,52,0.00,,,0.01,,2013-04-20 19:11:00,
2013-04-20 15:21:00,40.0,24.0,30.15,NW,304,8.0,24.0,52,0.00,,,0.01,,2013-04-20 19:21:00,
2013-04-20 15:32:00,40.0,23.0,30.16,NW,321,9.0,22.0,51,0.00,,,0.01,,2013-04-20 19:32:00,
2013-04-20 15:42:00,39.0,23.0,30.18,WSW,257,8.0,22.0,52,0.00,,,0.01,,2013-04-20 19:42:00,
2013-04-20 15:52:00,39.0,23.0,30.18,WSW,257,8.0,22.0,52,0.00,,,0.01,,2013-04-20 19:52:00,
2013-04-20 16:02:00,39.0,23.0,30.19,WNW,298,8.0,26.0,53,0.00,,,0.01,,2013-04-20 20:02:00,
2013-04-20 16:12:00,39.0,23.0,30.19,WNW,298,8.0,26.0,53,0.00,,,0.01,,2013-04-20 20:12:00,
2013-04-20 16:22:00,38.0,22.0,30.20,WSW,251,13.0,27.0,53,0.00,,,0.01,,2013-04-20 20:22:00,
2013-04-20 16:32:00,38.0,23.0,30.21,WNW,284,6.0,22.0,54,0.00,,,0.01,,2013-04-20 20:32:00,
2013-04-20 16:42:00,38.0,23.0,30.21,WNW,284,6.0,22.0,54,0.00,,,0.01,,2013-04-20 20:42:00,
2013-04-20 16:52:00,39.0,24.0,30.22,NW,325,11.0,25.0,55,0.00,,,0.01,,2013-04-20 20:52:00,
2013-04-20 17:02:00,38.0,22.0,30.23,West,269,13.0,27.0,53,0.00,,,0.01,,2013-04-20 21:02:00,
2013-04-20 17:12:00,38.0,22.0,30.23,West,269,13.0,27.0,53,0.00,,,0.01,,2013-04-20 21:12:00,
2013-04-20 17:22:00,38.0,22.0,30.24,West,259,11.0,28.0,52,0.00,,,0.01,,2013-04-20 21:22:00,
2013-04-20 17:33:00,38.0,22.0,30.25,West,268,7.0,23.0,52,0.00,,,0.01,,2013-04-20 21:33:00,
2013-04-20 17:43:00,38.0,22.0,30.25,West,268,7.0,23.0,52,0.00,,,0.01,,2013-04-20 21:43:00,
2013-04-20 17:52:00,38.0,21.0,30.26,West,259,14.0,22.0,50,0.00,,,0.01,,2013-04-20 21:52:00,
2013-04-20 18:03:00,38.0,21.0,30.27,West,276,14.0,22.0,50,0.00,,,0.01,,2013-04-20 22:03:00,
2013-04-20 18:12:00,38.0,21.0,30.27,West,276,14.0,22.0,50,0.00,,,0.01,,2013-04-20 22:12:00,
2013-04-20 18:23:00,37.0,20.0,30.28,West,280,14.0,28.0,49,0.00,,,0.01,,2013-04-20 22:23:00,
2013-04-20 18:32:00,37.0,20.0,30.29,West,280,11.0,25.0,49,0.00,,,0.01,,2013-04-20 22:32:00,
2013-04-20 18:42:00,37.0,20.0,30.29,West,280,11.0,25.0,49,0.00,,,0.01,,2013-04-20 22:42:00,
2013-04-20 18:52:00,37.0,20.0,30.30,WNW,293,9.0,24.0,50,0.00,,,0.01,,2013-04-20 22:52:00,
2013-04-20 19:02:00,37.0,21.0,30.32,West,277,5.0,22.0,51,0.00,,,0.01,,2013-04-20 23:02:00,
2013-04-20 19:12:00,37.0,21.0,30.32,West,277,5.0,22.0,51,0.00,,,0.01,,2013-04-20 23:12:00,
2013-04-20 19:22:00,37.0,19.0,30.32,WNW,290,10.0,25.0,48,0.00,,,0.01,,2013-04-20 23:22:00,
2013-04-20 19:32:00,37.0,19.0,30.33,WNW,294,7.0,22.0,48,0.00,,,0.01,,2013-04-20 23:32:00,
2013-04-20 19:42:00,37.0,19.0,30.33,WNW,294,7.0,22.0,48,0.00,,,0.01,,2013-04-20 23:42:00,
2013-04-20 19:52:00,37.0,20.0,30.34,West,278,9.0,20.0,50,0.00,,,0.01,,2013-04-20 23:52:00,
2013-04-20 20:01:00,36.0,20.0,30.35,NNW,327,12.0,18.0,51,0.00,,,0.01,,2013-04-21 00:01:00,
2013-04-20 20:12:00,36.0,20.0,30.35,NNW,327,12.0,18.0,51,0.00,,,0.01,,2013-04-21 00:12:00,
2013-04-20 20:22:00,36.0,21.0,30.36,WNW,282,6.0,17.0,53,0.00,,,0.01,,2013-04-21 00:22:00,
2013-04-20 20:32:00,35.0,20.0,30.38,WNW,288,10.0,23.0,53,0.00,,,0.01,,2013-04-21 00:32:00,
2013-04-20 20:42:00,35.0,20.0,30.38,WNW,288,10.0,23.0,53,0.00,,,0.01,,2013-04-21 00:42:00,
2013-04-20 20:52:00,35.0,21.0,30.39,NW,307,4.0,15.0,56,0.00,,,0.01,,2013-04-21 00:52:00,
2013-04-20 21:01:00,35.0,21.0,30.40,West,277,4.0,13.0,56,0.00,,,0.01,,2013-04-21 01:01:00,
2013-04-20 21:12:00,35.0,21.0,30.40,West,277,4.0,13.0,56,0.00,,,0.01,,2013-04-21 01:12:00,
2013-04-20 21:21:00,35.0,21.0,30.41,NW,318,5.0,13.0,56,0.00,,,0.01,,2013-04-21 01:21:00,
2013-04-20 21:32:00,35.0,21.0,30.42,NW,314,3.0,10.0,57,0.00,,,0.01,,2013-04-21 01:32:00,
2013-04-20 21:42:00,35.0,21.0,30.42,NW,314,3.0,10.0,57,0.00,,,0.01,,2013-04-21 01:42:00,
2013-04-20 21:52:00,34.0,20.0,30.43,NW,307,7.0,13.0,57,0.00,,,0.01,,2013-04-21 01:52:00,
2013-04-20 22:02:00,34.0,21.0,30.44,NW,326,3.0,11.0,58,0.00,,,0.01,,2013-04-21 02:02:00,
2013-04-20 22:11:00,34.0,21.0,30.44,NW,326,3.0,11.0,58,0.00,,,0.01,,2013-04-21 02:11:00,
2013-04-20 22:22:00,35.0,22.0,30.45,WNW,294,4.0,11.0,58,0.00,,,0.01,,2013-04-21 02:22:00,
2013-04-20 22:32:00,34.0,21.0,30.45,WNW,292,4.0,9.0,59,0.00,,,0.01,,2013-04-21 02:32:00,
2013-04-20 22:42:00,34.0,21.0,30.45,WNW,292,4.0,9.0,59,0.00,,,0.01,,2013-04-21 02:42:00,
2013-04-20 22:52:00,34.0,21.0,30.46,WNW,300,4.0,9.0,59,0.00,,,0.01,,2013-04-21 02:52:00,
2013-04-20 23:01:00,34.0,22.0,30.46,WNW,294,1.0,9.0,60,0.00,,,0.01,,2013-04-21 03:01:00,
2013-04-20 23:11:00,34.0,22.0,30.46,WNW,294,1.0,9.0,60,0.00,,,0.01,,2013-04-21 03:11:00,
2013-04-20 23:22:00,34.0,22.0,30.47,WNW,293,4.0,15.0,60,0.00,,,0.01,,2013-04-21 03:22:00,
2013-04-20 23:33:00,34.0,22.0,30.47,WNW,303,3.0,11.0,60,0.00,,,0.01,,2013-04-21 03:33:00,
2013-04-20 23:42:00,34.0,22.0,30.47,WNW,303,3.0,11.0,60,0.00,,,0.01,,2013-04-21 03:42:00,
2013-04-20 23:52:00,34.0,22.0,30.48,West,276,4.0,9.0,61,0.00,,,0.01,,2013-04-21 03:52:00,